< < Back
Terminal Aerodrome Forecast


Current Version              Previous Versions:   1  2  3  4  5  6  7  8  9  

Terminal Aerodrome Forecast

801
FTUS44 KBMX 272300
TAFMGM
TAF
KMGM 272328Z 2800/2824 VRB03KT P6SM SKC=



Latest METAR

619
SAUS80 KWBC 280500
MTRMGM
METAR KMGM 280453Z AUTO 09003KT 10SM CLR 21/18 A3002 RMK AO2 SLP164
T02110178 $


USA.gov is the U.S. government's official web portal to all federal, state and local government web resources and services.